Time;durP1;ratioP1;P1;durP2;ratioP2;P2;SDS_P1;SDS_P2;PMS_P1;PMS_P2;Temp;Humidity;BMP_temperature;BMP_pressure;BME280_temperature;BME280_humidity;BME280_pressure;Samples;Min_cycle;Max_cycle;Signal;HPM_P1;HPM_P2
2023/06/17 00:00:07;;;;;;;;;;;14.30;99.90;;;;;;5076327;28;19975;-86
2023/06/17 00:02:32;;;;;;;;;;;14.20;99.90;;;;;;5076303;28;19925;-86
2023/06/17 00:04:58;;;;;;;;;;;14.20;99.90;;;;;;5076023;28;20394;-86
2023/06/17 00:07:23;;;;;;;;;;;14.20;99.90;;;;;;5075141;28;19969;-85
2023/06/17 00:09:49;;;;;;;;;;;14.20;99.90;;;;;;5076306;28;19932;-85
2023/06/17 00:12:15;;;;;;;;;;;14.10;99.90;;;;;;5075758;28;19928;-85
2023/06/17 00:14:41;;;;;;;;;;;14.00;99.90;;;;;;5075640;28;19925;-85
2023/06/17 00:17:08;;;;;;;;;;;14.00;99.90;;;;;;5074694;28;19931;-86
2023/06/17 00:19:35;;;;;;;;;;;14.00;99.90;;;;;;5074635;28;20415;-86
2023/06/17 00:22:01;;;;;;;;;;;13.90;99.90;;;;;;5074732;28;20029;-85
2023/06/17 00:24:26;;;;;;;;;;;13.90;99.90;;;;;;5074719;28;19977;-85
2023/06/17 00:26:52;;;;;;;;;;;13.80;99.90;;;;;;5075555;28;19931;-86
2023/06/17 00:29:17;;;;;;;;;;;13.80;99.90;;;;;;5074722;28;20373;-85
2023/06/17 00:31:43;;;;;;;;;;;13.70;99.90;;;;;;5075712;28;20428;-85
2023/06/17 00:34:08;;;;;;;;;;;13.70;99.90;;;;;;5073967;28;19924;-85
2023/06/17 00:36:34;;;;;;;;;;;13.70;99.90;;;;;;5074331;28;19967;-85
2023/06/17 00:39:00;;;;;;;;;;;13.60;99.90;;;;;;5075134;28;19967;-85
2023/06/17 00:41:26;;;;;;;;;;;13.60;99.90;;;;;;5073988;28;19990;-85
2023/06/17 00:43:51;;;;;;;;;;;13.60;99.90;;;;;;5057184;28;20040;-85
2023/06/17 00:46:26;;;;;;;;;;;13.60;99.90;;;;;;5075878;28;20029;-85
2023/06/17 00:48:52;;;;;;;;;;;13.50;99.90;;;;;;5074433;28;20318;-86
2023/06/17 00:51:17;;;;;;;;;;;13.40;99.90;;;;;;5074473;28;19935;-85
2023/06/17 00:53:43;;;;;;;;;;;13.50;99.90;;;;;;5074213;28;19928;-85
2023/06/17 00:56:08;;;;;;;;;;;13.40;99.90;;;;;;5074798;28;19924;-86
2023/06/17 00:58:35;;;;;;;;;;;13.40;99.90;;;;;;5073976;28;19928;-86
2023/06/17 01:01:01;;;;;;;;;;;13.30;99.90;;;;;;5074907;28;19924;-85
2023/06/17 01:03:29;;;;;;;;;;;13.40;99.90;;;;;;5073820;28;19931;-85
2023/06/17 01:05:56;;;;;;;;;;;13.30;99.90;;;;;;5074670;28;20002;-85
2023/06/17 01:08:28;;;;;;;;;;;13.40;99.90;;;;;;5074652;28;19978;-87
2023/06/17 01:10:54;;;;;;;;;;;13.30;99.90;;;;;;5073289;28;19974;-86
2023/06/17 01:13:22;;;;;;;;;;;13.30;99.90;;;;;;5074575;28;20039;-85
2023/06/17 01:15:48;;;;;;;;;;;13.30;99.90;;;;;;5074524;28;19924;-85
2023/06/17 01:18:17;;;;;;;;;;;13.20;99.90;;;;;;5075057;28;19924;-85
2023/06/17 01:20:44;;;;;;;;;;;13.10;99.90;;;;;;5074455;28;20460;-85
2023/06/17 01:23:10;;;;;;;;;;;13.10;99.90;;;;;;5074494;28;19924;-85
2023/06/17 01:25:37;;;;;;;;;;;13.10;99.90;;;;;;5057584;28;19928;-86
2023/06/17 01:28:20;;;;;;;;;;;13.10;99.90;;;;;;5074329;28;19924;-85
2023/06/17 01:30:54;;;;;;;;;;;13.10;99.90;;;;;;5075065;28;19928;-85
2023/06/17 01:33:20;;;;;;;;;;;13.10;99.90;;;;;;5074255;28;19924;-85
2023/06/17 01:35:51;;;;;;;;;;;13.10;99.90;;;;;;5074136;28;19934;-85
2023/06/17 01:38:25;;;;;;;;;;;13.10;99.90;;;;;;5074923;28;19928;-85
2023/06/17 01:40:54;;;;;;;;;;;13.10;99.90;;;;;;5072677;28;19925;-86
2023/06/17 01:43:21;;;;;;;;;;;13.00;99.90;;;;;;5073986;28;19925;-85
2023/06/17 01:45:47;;;;;;;;;;;13.00;99.90;;;;;;5074082;28;19974;-85
2023/06/17 01:48:12;;;;;;;;;;;13.00;99.90;;;;;;5073142;28;20285;-85
2023/06/17 01:50:38;;;;;;;;;;;12.90;99.90;;;;;;5073134;28;19925;-87
2023/06/17 01:53:03;;;;;;;;;;;12.90;99.90;;;;;;5072697;28;19968;-85
2023/06/17 01:55:29;;;;;;;;;;;12.90;99.90;;;;;;5073567;28;19925;-85
2023/06/17 01:57:54;;;;;;;;;;;12.90;99.90;;;;;;5072469;28;19973;-85
2023/06/17 02:00:20;;;;;;;;;;;12.90;99.90;;;;;;5073153;28;19973;-85
2023/06/17 02:02:46;;;;;;;;;;;12.90;99.90;;;;;;5073785;28;19935;-87
2023/06/17 02:05:12;;;;;;;;;;;12.80;99.90;;;;;;5072798;28;20248;-85
2023/06/17 02:07:38;;;;;;;;;;;12.80;99.90;;;;;;5073057;28;19924;-86
2023/06/17 02:10:04;;;;;;;;;;;12.80;99.90;;;;;;5075621;28;20433;-85
2023/06/17 02:12:29;;;;;;;;;;;12.80;99.90;;;;;;5073025;28;20016;-85
2023/06/17 02:14:55;;;;;;;;;;;12.80;99.90;;;;;;5073934;28;19928;-86
2023/06/17 02:17:23;;;;;;;;;;;12.80;99.90;;;;;;5056063;28;19974;-85
2023/06/17 02:19:49;;;;;;;;;;;12.70;99.90;;;;;;5073954;28;19925;-86
2023/06/17 02:22:15;;;;;;;;;;;12.70;99.90;;;;;;5072778;28;19924;-85
2023/06/17 02:24:40;;;;;;;;;;;12.70;99.90;;;;;;5074179;28;19977;-85
2023/06/17 02:27:06;;;;;;;;;;;12.70;99.90;;;;;;5055853;28;19924;-87
2023/06/17 02:29:32;;;;;;;;;;;12.70;99.90;;;;;;5072525;28;19925;-86
2023/06/17 02:31:57;;;;;;;;;;;12.60;99.90;;;;;;5072578;28;20364;-85
2023/06/17 02:34:23;;;;;;;;;;;12.60;99.90;;;;;;5056032;28;19932;-85
2023/06/17 02:36:49;;;;;;;;;;;12.60;99.90;;;;;;5073154;28;19932;-85
2023/06/17 02:39:15;;;;;;;;;;;12.60;99.90;;;;;;5072895;28;20354;-87
2023/06/17 02:41:41;;;;;;;;;;;12.60;99.90;;;;;;5074171;28;19924;-85
2023/06/17 02:44:06;;;;;;;;;;;12.60;99.90;;;;;;5073347;28;19925;-85
2023/06/17 02:46:32;;;;;;;;;;;12.60;99.90;;;;;;5071995;28;19947;-85
2023/06/17 02:48:58;;;;;;;;;;;12.60;99.90;;;;;;5072475;28;19932;-85
2023/06/17 02:51:23;;;;;;;;;;;12.70;99.90;;;;;;5073267;28;19924;-87
2023/06/17 02:53:49;;;;;;;;;;;12.80;99.90;;;;;;5073152;28;20329;-86
2023/06/17 02:56:15;;;;;;;;;;;12.80;99.90;;;;;;5073162;28;19932;-85
2023/06/17 02:58:43;;;;;;;;;;;12.90;99.90;;;;;;5073147;28;19931;-86
2023/06/17 03:01:11;;;;;;;;;;;13.00;99.90;;;;;;5073077;28;20374;-85
2023/06/17 03:03:36;;;;;;;;;;;13.00;99.90;;;;;;5073091;28;19978;-85
2023/06/17 03:06:03;;;;;;;;;;;13.10;99.90;;;;;;5073261;28;19925;-85
2023/06/17 03:08:30;;;;;;;;;;;13.10;99.90;;;;;;5073328;28;19925;-86
2023/06/17 03:10:56;;;;;;;;;;;13.20;99.90;;;;;;5071979;28;19928;-85
2023/06/17 03:13:21;;;;;;;;;;;13.20;99.90;;;;;;5075349;28;20014;-85
2023/06/17 03:15:47;;;;;;;;;;;13.20;99.90;;;;;;5077024;28;19983;-85
2023/06/17 03:18:13;;;;;;;;;;;13.30;99.90;;;;;;5076958;28;19931;-86
2023/06/17 03:20:40;;;;;;;;;;;13.40;99.90;;;;;;5077022;28;19931;-86
2023/06/17 03:23:06;;;;;;;;;;;13.50;99.90;;;;;;5075652;28;19932;-85
2023/06/17 03:25:31;;;;;;;;;;;13.60;99.90;;;;;;5075941;28;19924;-85
2023/06/17 03:28:00;;;;;;;;;;;13.70;99.90;;;;;;5059404;28;19924;-85
2023/06/17 03:30:26;;;;;;;;;;;13.80;99.90;;;;;;5076498;28;20439;-85
2023/06/17 03:32:52;;;;;;;;;;;13.80;99.90;;;;;;5075779;28;19983;-85
2023/06/17 03:35:18;;;;;;;;;;;13.80;99.90;;;;;;5076794;28;19946;-85
2023/06/17 03:37:43;;;;;;;;;;;13.90;99.90;;;;;;5076743;28;19925;-85
2023/06/17 03:40:09;;;;;;;;;;;14.00;99.90;;;;;;5077037;28;19924;-85
2023/06/17 03:42:35;;;;;;;;;;;14.00;99.90;;;;;;5076953;28;20363;-85
2023/06/17 03:45:00;;;;;;;;;;;14.00;99.90;;;;;;5075573;28;20287;-86
2023/06/17 03:47:26;;;;;;;;;;;14.00;99.90;;;;;;5077052;28;19924;-86
2023/06/17 03:49:52;;;;;;;;;;;14.10;99.90;;;;;;5076367;28;20085;-86
2023/06/17 03:52:18;;;;;;;;;;;14.10;99.90;;;;;;5075461;28;20359;-86
2023/06/17 03:54:43;;;;;;;;;;;14.10;99.90;;;;;;5076082;28;19970;-86
2023/06/17 03:57:09;;;;;;;;;;;14.20;99.90;;;;;;5075362;28;19935;-85
2023/06/17 03:59:37;;;;;;;;;;;14.30;99.90;;;;;;5076229;28;20378;-85
2023/06/17 04:02:02;;;;;;;;;;;14.30;99.90;;;;;;5075338;28;19924;-85
2023/06/17 04:04:28;;;;;;;;;;;14.30;99.90;;;;;;5075377;28;20461;-85
2023/06/17 04:06:54;;;;;;;;;;;14.40;99.90;;;;;;5076909;28;20352;-85
2023/06/17 04:09:20;;;;;;;;;;;14.40;99.90;;;;;;5075079;28;20084;-86
2023/06/17 04:11:45;;;;;;;;;;;14.50;99.90;;;;;;5074858;28;19928;-87
2023/06/17 04:14:11;;;;;;;;;;;14.50;99.90;;;;;;5075029;28;19924;-85
2023/06/17 04:16:36;;;;;;;;;;;14.60;99.90;;;;;;5075977;28;19968;-86
2023/06/17 04:19:02;;;;;;;;;;;14.60;99.90;;;;;;5074462;28;19931;-85
2023/06/17 04:21:28;;;;;;;;;;;14.60;99.90;;;;;;5075892;28;20015;-85
2023/06/17 04:23:53;;;;;;;;;;;14.70;99.90;;;;;;5075865;28;19924;-85
2023/06/17 04:26:19;;;;;;;;;;;14.70;99.90;;;;;;5074611;28;20011;-86
2023/06/17 04:28:45;;;;;;;;;;;14.70;99.90;;;;;;5057990;28;19924;-85
2023/06/17 04:31:11;;;;;;;;;;;14.80;99.90;;;;;;5075853;28;20263;-87
2023/06/17 04:33:40;;;;;;;;;;;14.80;99.90;;;;;;5076421;28;20039;-87
2023/06/17 04:36:08;;;;;;;;;;;14.80;99.90;;;;;;5076164;28;19951;-85
2023/06/17 04:38:38;;;;;;;;;;;14.90;99.90;;;;;;5077681;28;19931;-85
2023/06/17 04:41:05;;;;;;;;;;;14.90;99.90;;;;;;5075902;28;20298;-85
2023/06/17 04:43:36;;;;;;;;;;;14.90;99.90;;;;;;5075761;28;19924;-85
2023/06/17 04:46:02;;;;;;;;;;;15.00;99.90;;;;;;5075402;28;19972;-85
2023/06/17 04:48:28;;;;;;;;;;;15.00;99.90;;;;;;5074518;28;19978;-85
2023/06/17 04:50:55;;;;;;;;;;;15.00;99.90;;;;;;5073827;28;19974;-85
2023/06/17 04:53:21;;;;;;;;;;;15.10;99.90;;;;;;5074347;28;20379;-85
2023/06/17 04:55:46;;;;;;;;;;;15.10;99.90;;;;;;5076144;28;19931;-85
2023/06/17 04:58:12;;;;;;;;;;;15.10;99.90;;;;;;5074298;28;20371;-85
2023/06/17 05:00:37;;;;;;;;;;;15.20;99.90;;;;;;5074896;28;19924;-86
2023/06/17 05:03:03;;;;;;;;;;;15.20;99.90;;;;;;5074739;28;19924;-83
2023/06/17 05:05:28;;;;;;;;;;;15.20;99.90;;;;;;5075020;28;19924;-84
2023/06/17 05:07:54;;;;;;;;;;;15.20;99.90;;;;;;5073670;28;20243;-85
2023/06/17 05:10:20;;;;;;;;;;;15.30;99.90;;;;;;5074864;28;19924;-85
2023/06/17 05:12:45;;;;;;;;;;;15.30;99.90;;;;;;5074064;28;20019;-84
2023/06/17 05:15:11;;;;;;;;;;;15.30;99.90;;;;;;5057306;28;19928;-85
2023/06/17 05:17:37;;;;;;;;;;;15.30;99.90;;;;;;5074493;28;19924;-84
2023/06/17 05:20:03;;;;;;;;;;;15.30;99.90;;;;;;5073630;28;19924;-84
2023/06/17 05:22:41;;;;;;;;;;;15.30;99.90;;;;;;5074664;28;19970;-85
2023/06/17 05:25:07;;;;;;;;;;;15.40;99.90;;;;;;5073420;28;20367;-85
2023/06/17 05:27:32;;;;;;;;;;;15.50;99.90;;;;;;5074668;28;20011;-85
2023/06/17 05:29:58;;;;;;;;;;;15.50;99.90;;;;;;5073361;28;19954;-86
2023/06/17 05:32:25;;;;;;;;;;;15.60;99.90;;;;;;5074641;28;20057;-84
2023/06/17 05:34:50;;;;;;;;;;;15.60;99.90;;;;;;5072973;28;20046;-84
2023/06/17 05:37:16;;;;;;;;;;;15.70;99.90;;;;;;5073278;28;19929;-82
2023/06/17 05:39:42;;;;;;;;;;;15.70;99.90;;;;;;5074681;28;20279;-88
2023/06/17 05:42:07;;;;;;;;;;;15.70;99.90;;;;;;5072772;28;19924;-84
2023/06/17 05:44:33;;;;;;;;;;;15.80;99.90;;;;;;5074198;28;20434;-85
2023/06/17 05:46:58;;;;;;;;;;;15.80;99.90;;;;;;5073229;28;19924;-83
2023/06/17 05:49:24;;;;;;;;;;;15.90;99.90;;;;;;5074859;28;19994;-83
2023/06/17 05:51:49;;;;;;;;;;;15.90;99.90;;;;;;5074483;28;20379;-83
2023/06/17 05:54:15;;;;;;;;;;;16.00;99.90;;;;;;5074651;28;20311;-83
2023/06/17 05:56:40;;;;;;;;;;;16.00;99.90;;;;;;5074438;28;19978;-84
2023/06/17 05:59:06;;;;;;;;;;;16.10;99.90;;;;;;5074498;28;19925;-84
2023/06/17 06:01:31;;;;;;;;;;;16.20;99.90;;;;;;5073899;28;19925;-84
2023/06/17 06:03:57;;;;;;;;;;;16.20;99.90;;;;;;5072940;28;19960;-86
2023/06/17 06:06:23;;;;;;;;;;;16.30;99.90;;;;;;5073874;28;19928;-81
2023/06/17 06:08:48;;;;;;;;;;;16.30;99.90;;;;;;5073814;28;20015;-80
2023/06/17 06:11:14;;;;;;;;;;;16.30;99.90;;;;;;5072512;28;19924;-81
2023/06/17 06:13:40;;;;;;;;;;;16.40;99.90;;;;;;5073855;28;19924;-81
2023/06/17 06:16:05;;;;;;;;;;;16.50;99.90;;;;;;5074387;28;20019;-82
2023/06/17 06:18:31;;;;;;;;;;;16.60;99.90;;;;;;5073123;28;19977;-81
2023/06/17 06:20:56;;;;;;;;;;;16.60;99.90;;;;;;5073787;28;19936;-82
2023/06/17 06:23:22;;;;;;;;;;;16.80;99.90;;;;;;5073800;28;19935;-83
2023/06/17 06:25:48;;;;;;;;;;;16.90;99.90;;;;;;5073692;28;20007;-83
2023/06/17 06:28:13;;;;;;;;;;;17.10;99.90;;;;;;5073713;28;19931;-82
2023/06/17 06:30:39;;;;;;;;;;;17.20;99.90;;;;;;5074223;28;19924;-82
2023/06/17 06:33:04;;;;;;;;;;;17.20;99.90;;;;;;5073750;28;19924;-82
2023/06/17 06:35:30;;;;;;;;;;;17.30;99.90;;;;;;5073635;28;19978;-82
2023/06/17 06:37:56;;;;;;;;;;;17.30;99.90;;;;;;5073641;28;20429;-82
2023/06/17 06:40:21;;;;;;;;;;;17.40;99.90;;;;;;5073439;28;19925;-81
2023/06/17 06:42:47;;;;;;;;;;;17.50;99.90;;;;;;5073423;28;19924;-82
2023/06/17 06:45:12;;;;;;;;;;;17.60;99.90;;;;;;5072884;28;19924;-82
2023/06/17 06:47:38;;;;;;;;;;;17.70;99.90;;;;;;5074840;28;20294;-82
2023/06/17 06:50:04;;;;;;;;;;;17.70;99.90;;;;;;5077576;28;19931;-81
2023/06/17 06:52:29;;;;;;;;;;;17.70;99.90;;;;;;5059919;28;20003;-82
2023/06/17 06:54:55;;;;;;;;;;;17.80;99.90;;;;;;5077504;28;19991;-82
2023/06/17 06:57:20;;;;;;;;;;;18.00;99.90;;;;;;5076535;28;19924;-82
2023/06/17 06:59:46;;;;;;;;;;;18.20;99.90;;;;;;5077467;28;19979;-82
2023/06/17 07:02:11;;;;;;;;;;;18.30;99.90;;;;;;5077333;28;19924;-82
2023/06/17 07:04:37;;;;;;;;;;;18.90;99.90;;;;;;5075935;28;19931;-82
2023/06/17 07:07:04;;;;;;;;;;;19.50;99.90;;;;;;5079485;28;19924;-83
2023/06/17 07:09:29;;;;;;;;;;;19.80;99.90;;;;;;5078708;28;19931;-85
2023/06/17 07:11:55;;;;;;;;;;;19.70;99.90;;;;;;5076530;28;20011;-84
2023/06/17 07:14:20;;;;;;;;;;;19.60;99.90;;;;;;5077200;28;19925;-83
2023/06/17 07:16:46;;;;;;;;;;;19.50;99.90;;;;;;5076875;28;19924;-83
2023/06/17 07:19:12;;;;;;;;;;;19.60;99.90;;;;;;5077842;28;19924;-82
2023/06/17 07:21:37;;;;;;;;;;;19.80;99.90;;;;;;5077549;28;20375;-83
2023/06/17 07:24:03;;;;;;;;;;;19.80;99.90;;;;;;5075506;28;19924;-85
2023/06/17 07:26:28;;;;;;;;;;;20.00;99.90;;;;;;5077056;28;19925;-83
2023/06/17 07:28:55;;;;;;;;;;;20.30;99.90;;;;;;5076265;28;19932;-84
2023/06/17 07:31:22;;;;;;;;;;;20.70;99.90;;;;;;5076522;28;20367;-83
2023/06/17 07:33:47;;;;;;;;;;;21.40;99.90;;;;;;5059057;28;20296;-83
2023/06/17 07:36:13;;;;;;;;;;;21.70;99.90;;;;;;5076626;28;19924;-83
2023/06/17 07:38:39;;;;;;;;;;;22.00;99.90;;;;;;5076533;28;19993;-83
2023/06/17 07:41:04;;;;;;;;;;;22.40;99.90;;;;;;5076601;28;19964;-83
2023/06/17 07:43:30;;;;;;;;;;;22.90;99.90;;;;;;5075388;28;20367;-84
2023/06/17 07:45:56;;;;;;;;;;;23.30;99.90;;;;;;5076336;28;19929;-83
2023/06/17 07:48:21;;;;;;;;;;;23.40;99.90;;;;;;5076436;28;20014;-84
2023/06/17 07:50:47;;;;;;;;;;;23.70;99.90;;;;;;5074982;28;19925;-83
2023/06/17 07:53:13;;;;;;;;;;;24.00;99.90;;;;;;5075767;28;19952;-83
2023/06/17 07:55:39;;;;;;;;;;;24.10;99.90;;;;;;5075073;28;20276;-83
2023/06/17 07:58:05;;;;;;;;;;;24.30;99.90;;;;;;5075853;28;19924;-83
2023/06/17 08:00:30;;;;;;;;;;;24.40;99.90;;;;;;5075483;28;19925;-84
2023/06/17 08:02:56;;;;;;;;;;;24.60;99.90;;;;;;5076080;28;19951;-85
2023/06/17 08:05:22;;;;;;;;;;;24.70;99.90;;;;;;5074955;28;19924;-83
2023/06/17 08:07:47;;;;;;;;;;;24.80;99.90;;;;;;5076281;28;19924;-83
2023/06/17 08:10:13;;;;;;;;;;;24.90;99.90;;;;;;5076139;28;20050;-84
2023/06/17 08:12:38;;;;;;;;;;;25.00;99.90;;;;;;5076676;28;19929;-83
2023/06/17 08:15:05;;;;;;;;;;;25.10;99.00;;;;;;5076548;28;19925;-84
2023/06/17 08:17:30;;;;;;;;;;;25.00;99.90;;;;;;5076280;28;19970;-84
2023/06/17 08:19:56;;;;;;;;;;;25.00;99.70;;;;;;5075074;28;19932;-83
2023/06/17 08:22:22;;;;;;;;;;;25.00;99.90;;;;;;5058603;28;19931;-84
2023/06/17 08:24:47;;;;;;;;;;;25.10;99.90;;;;;;5074424;28;19925;-86
2023/06/17 08:27:13;;;;;;;;;;;25.20;99.90;;;;;;5074393;28;20041;-85
2023/06/17 08:29:39;;;;;;;;;;;25.30;97.60;;;;;;5075900;28;19924;-83
2023/06/17 08:32:05;;;;;;;;;;;25.30;99.90;;;;;;5074309;28;19928;-83
2023/06/17 08:34:32;;;;;;;;;;;25.40;98.30;;;;;;5075436;28;19925;-82
2023/06/17 08:37:04;;;;;;;;;;;25.50;97.30;;;;;;5075343;28;20049;-84
2023/06/17 08:39:30;;;;;;;;;;;25.30;98.20;;;;;;5075228;28;19924;-83
2023/06/17 08:41:56;;;;;;;;;;;25.30;99.20;;;;;;5074698;28;20015;-83
2023/06/17 08:44:22;;;;;;;;;;;25.50;98.70;;;;;;5076009;28;20417;-82
2023/06/17 08:46:49;;;;;;;;;;;25.50;98.40;;;;;;5076045;28;19925;-82
2023/06/17 08:49:15;;;;;;;;;;;25.60;99.80;;;;;;5074333;28;19943;-83
2023/06/17 08:51:41;;;;;;;;;;;25.80;98.70;;;;;;5073931;28;19931;-83
2023/06/17 08:54:06;;;;;;;;;;;25.80;97.90;;;;;;5074267;28;19943;-83
2023/06/17 08:56:32;;;;;;;;;;;25.90;98.30;;;;;;5074241;28;20018;-83
2023/06/17 08:58:58;;;;;;;;;;;25.80;95.80;;;;;;5075217;28;19925;-83
2023/06/17 09:01:24;;;;;;;;;;;25.90;98.20;;;;;;5075189;28;19925;-83
2023/06/17 09:03:51;;;;;;;;;;;25.90;99.10;;;;;;5075298;28;19924;-83
2023/06/17 09:06:25;;;;;;;;;;;26.00;98.20;;;;;;5074822;28;19928;-85
2023/06/17 09:08:51;;;;;;;;;;;26.10;98.30;;;;;;5075102;28;19996;-88
2023/06/17 09:11:17;;;;;;;;;;;26.20;94.40;;;;;;5073169;28;19978;-83
2023/06/17 09:13:50;;;;;;;;;;;26.30;95.40;;;;;;5075119;28;20328;-84
2023/06/17 09:16:25;;;;;;;;;;;26.50;94.60;;;;;;5075673;28;19924;-83
2023/06/17 09:19:09;;;;;;;;;;;26.70;95.30;;;;;;5057093;28;19940;-83
2023/06/17 09:21:36;;;;;;;;;;;26.90;94.90;;;;;;5074141;28;20027;-83
2023/06/17 09:24:06;;;;;;;;;;;26.90;96.30;;;;;;5075135;28;19987;-84
2023/06/17 09:26:32;;;;;;;;;;;27.00;95.70;;;;;;5074590;28;19931;-83
2023/06/17 09:29:05;;;;;;;;;;;27.10;93.90;;;;;;5073672;28;19936;-82
2023/06/17 09:31:31;;;;;;;;;;;27.10;93.70;;;;;;5074197;28;19977;-85
2023/06/17 09:33:57;;;;;;;;;;;27.10;90.40;;;;;;5075635;28;19925;-84
2023/06/17 09:36:23;;;;;;;;;;;27.10;94.50;;;;;;5076357;28;19935;-85
2023/06/17 09:38:52;;;;;;;;;;;27.00;91.20;;;;;;5076362;28;19924;-85
2023/06/17 09:41:20;;;;;;;;;;;27.00;93.80;;;;;;5074842;28;19947;-85
2023/06/17 09:43:53;;;;;;;;;;;27.00;91.60;;;;;;5075135;28;20327;-85
2023/06/17 09:46:29;;;;;;;;;;;27.10;92.90;;;;;;5073461;28;19928;-87
2023/06/17 09:48:57;;;;;;;;;;;27.30;93.40;;;;;;5058542;28;19924;-84
2023/06/17 09:51:23;;;;;;;;;;;27.40;90.90;;;;;;5074064;28;19929;-84
2023/06/17 09:53:52;;;;;;;;;;;27.50;91.80;;;;;;5072979;28;19924;-84
2023/06/17 09:56:19;;;;;;;;;;;27.60;91.60;;;;;;5073933;28;19925;-83
2023/06/17 09:58:44;;;;;;;;;;;27.80;90.90;;;;;;5074642;28;19925;-83
2023/06/17 10:01:11;;;;;;;;;;;27.60;90.20;;;;;;5075075;28;19932;-82
2023/06/17 10:03:39;;;;;;;;;;;27.80;91.20;;;;;;5077690;28;19951;-83
2023/06/17 10:06:08;;;;;;;;;;;27.90;90.40;;;;;;5079251;28;19909;-83
2023/06/17 10:08:39;;;;;;;;;;;27.90;91.80;;;;;;5075704;28;19975;-83
2023/06/17 10:11:04;;;;;;;;;;;27.90;86.60;;;;;;5073863;28;19925;-82
2023/06/17 10:13:33;;;;;;;;;;;28.00;90.10;;;;;;5073256;28;19967;-84
2023/06/17 10:15:58;;;;;;;;;;;28.00;85.90;;;;;;5074662;28;19924;-83
2023/06/17 10:18:25;;;;;;;;;;;28.10;86.70;;;;;;5073841;28;20414;-84
2023/06/17 10:20:51;;;;;;;;;;;28.10;88.80;;;;;;5072805;28;20368;-83
2023/06/17 10:23:21;;;;;;;;;;;28.20;86.70;;;;;;5073562;28;19928;-83
2023/06/17 10:25:47;;;;;;;;;;;28.30;82.40;;;;;;5074511;28;19924;-83
2023/06/17 10:28:16;;;;;;;;;;;28.40;87.60;;;;;;5073348;28;20397;-84
2023/06/17 10:30:48;;;;;;;;;;;28.40;79.70;;;;;;5072621;28;20394;-83
2023/06/17 10:33:13;;;;;;;;;;;28.30;82.80;;;;;;5073627;28;19931;-83
2023/06/17 10:35:43;;;;;;;;;;;28.50;86.20;;;;;;5074162;28;20243;-83
2023/06/17 10:38:09;;;;;;;;;;;28.50;85.00;;;;;;5072540;28;19929;-83
2023/06/17 10:40:38;;;;;;;;;;;28.60;83.10;;;;;;5074334;28;19924;-83
2023/06/17 10:43:04;;;;;;;;;;;28.80;84.10;;;;;;5073407;28;19924;-83
2023/06/17 10:45:31;;;;;;;;;;;28.80;79.00;;;;;;5072978;28;20278;-84
2023/06/17 10:48:12;;;;;;;;;;;28.80;77.40;;;;;;5072522;28;19928;-82
2023/06/17 10:50:38;;;;;;;;;;;28.80;80.10;;;;;;5072743;28;19931;-84
2023/06/17 10:53:05;;;;;;;;;;;28.90;80.20;;;;;;5072665;28;20322;-83
2023/06/17 10:55:30;;;;;;;;;;;28.80;80.80;;;;;;5071720;28;20023;-83
2023/06/17 10:57:57;;;;;;;;;;;28.80;78.70;;;;;;5072401;28;19979;-84
2023/06/17 11:00:23;;;;;;;;;;;28.90;79.40;;;;;;5072484;28;19928;-82
2023/06/17 11:02:48;;;;;;;;;;;29.00;77.70;;;;;;5072491;28;19931;-83
2023/06/17 11:05:15;;;;;;;;;;;29.20;82.90;;;;;;5072978;28;20295;-84
2023/06/17 11:07:40;;;;;;;;;;;29.30;82.20;;;;;;5072382;28;20102;-83
2023/06/17 11:10:06;;;;;;;;;;;29.40;73.80;;;;;;5071494;28;20037;-84
2023/06/17 11:12:34;;;;;;;;;;;29.30;74.70;;;;;;5072358;28;19932;-85
2023/06/17 11:14:59;;;;;;;;;;;29.30;70.90;;;;;;5072171;28;19925;-84
2023/06/17 11:17:25;;;;;;;;;;;29.20;76.70;;;;;;5072880;28;20439;-84
2023/06/17 11:19:50;;;;;;;;;;;29.20;75.70;;;;;;5072364;28;20274;-83
2023/06/17 11:22:16;;;;;;;;;;;29.20;71.80;;;;;;5071631;28;19928;-84
2023/06/17 11:24:43;;;;;;;;;;;29.30;71.80;;;;;;5072343;28;19925;-83
2023/06/17 11:27:10;;;;;;;;;;;29.40;70.10;;;;;;5071483;28;19932;-84
2023/06/17 11:29:39;;;;;;;;;;;29.40;72.50;;;;;;5071737;28;19930;-84
2023/06/17 11:32:05;;;;;;;;;;;29.30;70.50;;;;;;5070913;28;19963;-83
2023/06/17 11:34:33;;;;;;;;;;;29.30;71.00;;;;;;5074007;28;19924;-84
2023/06/17 11:37:00;;;;;;;;;;;29.30;69.50;;;;;;5057758;28;19932;-84
2023/06/17 11:39:27;;;;;;;;;;;29.30;70.50;;;;;;5075652;28;20339;-82
2023/06/17 11:41:53;;;;;;;;;;;29.50;71.90;;;;;;5012173;28;1805814;-83
2023/06/17 11:44:18;;;;;;;;;;;29.50;70.00;;;;;;5077242;28;19931;-83
2023/06/17 11:46:48;;;;;;;;;;;29.70;70.20;;;;;;5058849;28;19928;-83
2023/06/17 11:49:14;;;;;;;;;;;29.90;67.90;;;;;;5076619;28;19986;-81
2023/06/17 11:51:47;;;;;;;;;;;30.00;66.30;;;;;;5076524;28;19971;-83
2023/06/17 11:54:12;;;;;;;;;;;30.10;66.60;;;;;;5076522;28;20360;-82
2023/06/17 11:56:38;;;;;;;;;;;30.10;67.60;;;;;;5076297;28;19932;-83
2023/06/17 11:59:03;;;;;;;;;;;30.20;69.70;;;;;;5076302;28;20388;-84
2023/06/17 12:01:29;;;;;;;;;;;30.40;64.80;;;;;;5075134;28;19925;-84
2023/06/17 12:03:55;;;;;;;;;;;30.40;66.90;;;;;;5077181;28;19980;-82
2023/06/17 12:06:21;;;;;;;;;;;30.30;65.80;;;;;;5077223;28;20011;-84
2023/06/17 12:08:58;;;;;;;;;;;30.30;65.00;;;;;;5076196;28;19932;-82
2023/06/17 12:11:43;;;;;;;;;;;30.20;63.90;;;;;;5075870;28;19989;-83
2023/06/17 12:14:10;;;;;;;;;;;30.40;62.80;;;;;;5075627;28;19932;-83
2023/06/17 12:16:37;;;;;;;;;;;30.40;64.20;;;;;;5075989;28;20077;-83
2023/06/17 12:19:06;;;;;;;;;;;30.50;65.20;;;;;;5074843;28;19931;-83
2023/06/17 12:21:31;;;;;;;;;;;30.70;63.00;;;;;;5075961;28;19931;-84
2023/06/17 12:23:58;;;;;;;;;;;30.70;60.00;;;;;;5075901;28;19924;-87
2023/06/17 12:26:23;;;;;;;;;;;30.60;61.10;;;;;;5076205;28;19982;-88
2023/06/17 12:28:49;;;;;;;;;;;30.60;62.30;;;;;;5075917;28;19924;-87
2023/06/17 12:31:16;;;;;;;;;;;30.50;60.50;;;;;;5075181;28;19928;-88
2023/06/17 12:33:42;;;;;;;;;;;30.50;60.80;;;;;;5075592;28;20012;-87
2023/06/17 12:36:08;;;;;;;;;;;30.60;60.70;;;;;;5075112;28;20363;-87
2023/06/17 12:38:33;;;;;;;;;;;30.70;63.00;;;;;;5076102;28;19924;-86
2023/06/17 12:41:00;;;;;;;;;;;30.70;61.30;;;;;;5075857;28;19994;-84
2023/06/17 12:43:29;;;;;;;;;;;30.80;61.70;;;;;;5075511;28;19931;-87
2023/06/17 12:46:01;;;;;;;;;;;30.90;60.80;;;;;;5073481;28;20329;-85
2023/06/17 12:48:27;;;;;;;;;;;31.00;59.90;;;;;;5075596;28;19935;-86
2023/06/17 12:50:53;;;;;;;;;;;30.90;58.60;;;;;;5075407;28;19925;-87
2023/06/17 12:53:20;;;;;;;;;;;30.90;59.30;;;;;;5075646;28;19931;-91
2023/06/17 12:55:45;;;;;;;;;;;31.00;60.60;;;;;;5058203;28;19932;-86
2023/06/17 12:58:11;;;;;;;;;;;31.00;59.20;;;;;;5075283;28;19925;-86
2023/06/17 13:00:37;;;;;;;;;;;31.00;59.20;;;;;;5074388;28;20432;-87
2023/06/17 13:03:02;;;;;;;;;;;30.90;57.80;;;;;;5075011;28;20003;-86
2023/06/17 13:05:28;;;;;;;;;;;30.70;58.70;;;;;;5075279;28;19924;-87
2023/06/17 13:07:54;;;;;;;;;;;30.60;57.60;;;;;;5074411;28;20023;-86
2023/06/17 13:10:21;;;;;;;;;;;30.60;58.10;;;;;;5074982;28;19943;-88
2023/06/17 13:12:47;;;;;;;;;;;30.60;59.00;;;;;;5075125;28;19929;-86
2023/06/17 13:15:13;;;;;;;;;;;30.70;56.90;;;;;;5074783;28;19931;-87
2023/06/17 13:17:38;;;;;;;;;;;30.70;55.50;;;;;;5074637;28;19925;-87
2023/06/17 13:20:04;;;;;;;;;;;30.60;56.90;;;;;;5074665;28;19925;-87
2023/06/17 13:22:33;;;;;;;;;;;30.60;56.50;;;;;;5074954;28;19929;-87
2023/06/17 13:24:59;;;;;;;;;;;30.70;56.70;;;;;;5075103;28;19925;-86
2023/06/17 13:27:25;;;;;;;;;;;30.70;55.20;;;;;;5074649;28;20037;-86
2023/06/17 13:29:51;;;;;;;;;;;30.80;57.80;;;;;;5074390;28;19924;-87
2023/06/17 13:32:17;;;;;;;;;;;31.00;57.00;;;;;;5073821;28;20477;-86
2023/06/17 13:34:43;;;;;;;;;;;31.10;57.20;;;;;;5074070;28;19925;-87
2023/06/17 13:37:09;;;;;;;;;;;31.00;55.70;;;;;;5074271;28;19940;-85
2023/06/17 13:39:35;;;;;;;;;;;31.00;55.50;;;;;;5057198;28;19925;-84
2023/06/17 13:42:02;;;;;;;;;;;30.90;55.70;;;;;;5074729;28;19924;-88
2023/06/17 13:44:27;;;;;;;;;;;30.80;54.70;;;;;;5074582;28;20375;-86
2023/06/17 13:46:54;;;;;;;;;;;30.80;54.50;;;;;;5074690;28;19924;-88
2023/06/17 13:49:20;;;;;;;;;;;30.70;55.30;;;;;;5074448;28;20426;-87
2023/06/17 13:51:45;;;;;;;;;;;30.70;56.30;;;;;;5074363;28;19925;-87
2023/06/17 13:54:11;;;;;;;;;;;30.50;56.30;;;;;;5074314;28;19932;-86
2023/06/17 13:56:37;;;;;;;;;;;30.40;55.90;;;;;;5073631;28;20011;-86
2023/06/17 13:59:03;;;;;;;;;;;30.30;56.50;;;;;;5072950;28;20398;-87
2023/06/17 14:01:28;;;;;;;;;;;30.20;56.40;;;;;;5074160;28;19925;-87
2023/06/17 14:03:54;;;;;;;;;;;30.20;56.90;;;;;;5073169;28;19940;-86
2023/06/17 14:06:19;;;;;;;;;;;30.30;57.00;;;;;;5074078;28;19925;-87
2023/06/17 14:08:45;;;;;;;;;;;30.40;56.30;;;;;;5074191;28;19924;-88
2023/06/17 14:11:11;;;;;;;;;;;30.40;55.80;;;;;;5073308;28;19924;-89